sensor_id;sensor_type;location;lat;lon;timestamp;temperature;humidity
2839;DHT22;1427;48.510;9.060;2024-02-16T00:02:02;8.80;99.90
2839;DHT22;1427;48.510;9.060;2024-02-16T00:04:30;8.70;99.90
2839;DHT22;1427;48.510;9.060;2024-02-16T00:06:58;8.70;99.90
2839;DHT22;1427;48.510;9.060;2024-02-16T00:09:27;8.70;99.90
2839;DHT22;1427;48.510;9.060;2024-02-16T00:11:56;8.60;99.90
2839;DHT22;1427;48.510;9.060;2024-02-16T00:14:24;8.60;99.90
2839;DHT22;1427;48.510;9.060;2024-02-16T00:16:52;8.60;99.90
2839;DHT22;1427;48.510;9.060;2024-02-16T00:19:20;8.70;99.90
2839;DHT22;1427;48.510;9.060;2024-02-16T00:21:50;8.70;99.90
2839;DHT22;1427;48.510;9.060;2024-02-16T00:24:18;8.70;99.90
2839;DHT22;1427;48.510;9.060;2024-02-16T00:26:46;8.70;99.90
2839;DHT22;1427;48.510;9.060;2024-02-16T00:29:15;8.70;99.90
2839;DHT22;1427;48.510;9.060;2024-02-16T00:31:44;8.90;99.90
2839;DHT22;1427;48.510;9.060;2024-02-16T00:34:12;8.70;99.90
2839;DHT22;1427;48.510;9.060;2024-02-16T00:36:40;8.60;99.90
2839;DHT22;1427;48.510;9.060;2024-02-16T00:39:08;8.60;99.90
2839;DHT22;1427;48.510;9.060;2024-02-16T00:41:36;8.60;99.90
2839;DHT22;1427;48.510;9.060;2024-02-16T00:44:04;8.70;99.90
2839;DHT22;1427;48.510;9.060;2024-02-16T00:46:35;8.80;99.90
2839;DHT22;1427;48.510;9.060;2024-02-16T00:49:04;8.80;99.90
2839;DHT22;1427;48.510;9.060;2024-02-16T00:51:32;8.80;99.90
2839;DHT22;1427;48.510;9.060;2024-02-16T00:54:00;8.70;99.90
2839;DHT22;1427;48.510;9.060;2024-02-16T00:56:30;8.70;99.90
2839;DHT22;1427;48.510;9.060;2024-02-16T00:58:58;8.70;99.90
2839;DHT22;1427;48.510;9.060;2024-02-16T01:01:26;8.60;99.90
2839;DHT22;1427;48.510;9.060;2024-02-16T01:03:55;8.60;99.90
2839;DHT22;1427;48.510;9.060;2024-02-16T01:06:23;8.70;99.90
2839;DHT22;1427;48.510;9.060;2024-02-16T01:08:52;8.60;99.90
2839;DHT22;1427;48.510;9.060;2024-02-16T01:11:20;8.60;99.90
2839;DHT22;1427;48.510;9.060;2024-02-16T01:13:48;8.60;99.90
2839;DHT22;1427;48.510;9.060;2024-02-16T01:16:16;8.70;99.90
2839;DHT22;1427;48.510;9.060;2024-02-16T01:18:44;8.70;99.90
2839;DHT22;1427;48.510;9.060;2024-02-16T01:21:13;8.70;99.90
2839;DHT22;1427;48.510;9.060;2024-02-16T01:23:41;8.70;99.90
2839;DHT22;1427;48.510;9.060;2024-02-16T01:26:09;8.70;99.90
2839;DHT22;1427;48.510;9.060;2024-02-16T01:28:37;8.70;99.90
2839;DHT22;1427;48.510;9.060;2024-02-16T01:31:05;8.60;99.90
2839;DHT22;1427;48.510;9.060;2024-02-16T01:33:33;8.60;99.90
2839;DHT22;1427;48.510;9.060;2024-02-16T01:36:03;8.60;99.90
2839;DHT22;1427;48.510;9.060;2024-02-16T01:38:32;8.60;99.90
2839;DHT22;1427;48.510;9.060;2024-02-16T01:41:01;8.60;99.90
2839;DHT22;1427;48.510;9.060;2024-02-16T01:43:29;8.60;99.90
2839;DHT22;1427;48.510;9.060;2024-02-16T01:45:58;8.50;99.90
2839;DHT22;1427;48.510;9.060;2024-02-16T01:48:27;8.60;99.90
2839;DHT22;1427;48.510;9.060;2024-02-16T01:50:56;8.70;99.90
2839;DHT22;1427;48.510;9.060;2024-02-16T01:53:25;8.20;99.90
2839;DHT22;1427;48.510;9.060;2024-02-16T01:55:55;8.50;99.90
2839;DHT22;1427;48.510;9.060;2024-02-16T01:58:24;8.50;99.90
2839;DHT22;1427;48.510;9.060;2024-02-16T02:00:53;8.60;99.90
2839;DHT22;1427;48.510;9.060;2024-02-16T02:03:22;8.60;99.90
2839;DHT22;1427;48.510;9.060;2024-02-16T02:05:50;8.60;99.90
2839;DHT22;1427;48.510;9.060;2024-02-16T02:08:21;8.60;99.90
2839;DHT22;1427;48.510;9.060;2024-02-16T02:10:49;8.60;99.90
2839;DHT22;1427;48.510;9.060;2024-02-16T02:13:19;8.60;99.90
2839;DHT22;1427;48.510;9.060;2024-02-16T02:15:48;8.80;99.90
2839;DHT22;1427;48.510;9.060;2024-02-16T02:18:17;8.70;99.90
2839;DHT22;1427;48.510;9.060;2024-02-16T02:20:45;9.00;99.90
2839;DHT22;1427;48.510;9.060;2024-02-16T02:23:14;8.90;99.90
2839;DHT22;1427;48.510;9.060;2024-02-16T02:25:42;8.80;99.90
2839;DHT22;1427;48.510;9.060;2024-02-16T02:28:40;8.80;99.90
2839;DHT22;1427;48.510;9.060;2024-02-16T02:31:08;8.80;99.90
2839;DHT22;1427;48.510;9.060;2024-02-16T02:33:36;8.80;99.90
2839;DHT22;1427;48.510;9.060;2024-02-16T02:36:05;8.80;99.90
2839;DHT22;1427;48.510;9.060;2024-02-16T02:38:35;8.80;99.90
2839;DHT22;1427;48.510;9.060;2024-02-16T02:41:03;8.80;99.90
2839;DHT22;1427;48.510;9.060;2024-02-16T02:43:34;8.90;99.90
2839;DHT22;1427;48.510;9.060;2024-02-16T02:46:02;8.80;99.90
2839;DHT22;1427;48.510;9.060;2024-02-16T02:48:30;8.80;99.90
2839;DHT22;1427;48.510;9.060;2024-02-16T02:50:59;8.80;99.90
2839;DHT22;1427;48.510;9.060;2024-02-16T02:53:28;8.80;99.90
2839;DHT22;1427;48.510;9.060;2024-02-16T02:55:57;8.80;99.90
2839;DHT22;1427;48.510;9.060;2024-02-16T02:58:25;8.80;99.90
2839;DHT22;1427;48.510;9.060;2024-02-16T03:00:53;8.90;99.90
2839;DHT22;1427;48.510;9.060;2024-02-16T03:03:22;8.90;99.90
2839;DHT22;1427;48.510;9.060;2024-02-16T03:05:50;8.90;99.90
2839;DHT22;1427;48.510;9.060;2024-02-16T03:08:18;8.90;99.90
2839;DHT22;1427;48.510;9.060;2024-02-16T03:10:46;8.90;99.90
2839;DHT22;1427;48.510;9.060;2024-02-16T03:13:16;8.90;99.90
2839;DHT22;1427;48.510;9.060;2024-02-16T03:15:45;8.90;99.90
2839;DHT22;1427;48.510;9.060;2024-02-16T03:18:13;9.00;99.90
2839;DHT22;1427;48.510;9.060;2024-02-16T03:20:42;8.80;99.90
2839;DHT22;1427;48.510;9.060;2024-02-16T03:23:13;8.90;99.90
2839;DHT22;1427;48.510;9.060;2024-02-16T03:25:41;9.10;99.90
2839;DHT22;1427;48.510;9.060;2024-02-16T03:28:11;9.10;99.90
2839;DHT22;1427;48.510;9.060;2024-02-16T03:30:42;8.90;99.90
2839;DHT22;1427;48.510;9.060;2024-02-16T03:33:10;8.90;99.90
2839;DHT22;1427;48.510;9.060;2024-02-16T03:35:38;8.80;99.90
2839;DHT22;1427;48.510;9.060;2024-02-16T03:38:07;8.80;99.90
2839;DHT22;1427;48.510;9.060;2024-02-16T03:40:35;8.90;99.90
2839;DHT22;1427;48.510;9.060;2024-02-16T03:43:04;8.70;99.90
2839;DHT22;1427;48.510;9.060;2024-02-16T03:45:32;8.70;99.90
2839;DHT22;1427;48.510;9.060;2024-02-16T03:48:02;8.70;99.90
2839;DHT22;1427;48.510;9.060;2024-02-16T03:50:30;8.70;99.90
2839;DHT22;1427;48.510;9.060;2024-02-16T03:52:58;8.60;99.90
2839;DHT22;1427;48.510;9.060;2024-02-16T03:55:27;8.70;99.90
2839;DHT22;1427;48.510;9.060;2024-02-16T03:57:55;8.60;99.90
2839;DHT22;1427;48.510;9.060;2024-02-16T04:00:23;8.60;99.90
2839;DHT22;1427;48.510;9.060;2024-02-16T04:02:51;8.60;99.90
2839;DHT22;1427;48.510;9.060;2024-02-16T04:05:20;8.60;99.90
2839;DHT22;1427;48.510;9.060;2024-02-16T04:07:49;8.90;99.90
2839;DHT22;1427;48.510;9.060;2024-02-16T04:10:17;8.60;99.90
2839;DHT22;1427;48.510;9.060;2024-02-16T04:12:45;8.60;99.90
2839;DHT22;1427;48.510;9.060;2024-02-16T04:15:13;8.60;99.90
2839;DHT22;1427;48.510;9.060;2024-02-16T04:17:41;8.70;99.90
2839;DHT22;1427;48.510;9.060;2024-02-16T04:20:10;8.70;99.90
2839;DHT22;1427;48.510;9.060;2024-02-16T04:22:40;8.70;99.90
2839;DHT22;1427;48.510;9.060;2024-02-16T04:25:08;8.60;99.90
2839;DHT22;1427;48.510;9.060;2024-02-16T04:27:36;8.40;99.90
2839;DHT22;1427;48.510;9.060;2024-02-16T04:30:06;8.30;99.90
2839;DHT22;1427;48.510;9.060;2024-02-16T04:32:34;8.40;99.90
2839;DHT22;1427;48.510;9.060;2024-02-16T04:35:03;8.40;99.90
2839;DHT22;1427;48.510;9.060;2024-02-16T04:37:31;8.40;99.90
2839;DHT22;1427;48.510;9.060;2024-02-16T04:40:01;8.40;99.90
2839;DHT22;1427;48.510;9.060;2024-02-16T04:42:29;8.40;99.90
2839;DHT22;1427;48.510;9.060;2024-02-16T04:44:57;8.40;99.90
2839;DHT22;1427;48.510;9.060;2024-02-16T04:47:27;8.50;99.90
2839;DHT22;1427;48.510;9.060;2024-02-16T04:49:55;8.60;99.90
2839;DHT22;1427;48.510;9.060;2024-02-16T04:52:23;8.50;99.90
2839;DHT22;1427;48.510;9.060;2024-02-16T04:54:57;8.60;99.90
2839;DHT22;1427;48.510;9.060;2024-02-16T04:57:28;8.60;99.90
2839;DHT22;1427;48.510;9.060;2024-02-16T04:59:58;8.60;99.90
2839;DHT22;1427;48.510;9.060;2024-02-16T05:02:26;8.60;99.90
2839;DHT22;1427;48.510;9.060;2024-02-16T05:04:54;8.60;99.90
2839;DHT22;1427;48.510;9.060;2024-02-16T05:07:24;8.60;99.90
2839;DHT22;1427;48.510;9.060;2024-02-16T05:09:53;8.80;99.90
2839;DHT22;1427;48.510;9.060;2024-02-16T05:12:26;8.70;99.90
2839;DHT22;1427;48.510;9.060;2024-02-16T05:14:54;8.70;99.90
2839;DHT22;1427;48.510;9.060;2024-02-16T05:17:23;8.60;99.90
2839;DHT22;1427;48.510;9.060;2024-02-16T05:19:51;8.40;99.90
2839;DHT22;1427;48.510;9.060;2024-02-16T05:22:20;8.30;99.90
2839;DHT22;1427;48.510;9.060;2024-02-16T05:24:49;8.30;99.90
2839;DHT22;1427;48.510;9.060;2024-02-16T05:27:17;8.30;99.90
2839;DHT22;1427;48.510;9.060;2024-02-16T05:29:47;8.30;99.90
2839;DHT22;1427;48.510;9.060;2024-02-16T05:32:15;8.20;99.90
2839;DHT22;1427;48.510;9.060;2024-02-16T05:34:43;8.20;99.90
2839;DHT22;1427;48.510;9.060;2024-02-16T05:37:11;8.20;99.90
2839;DHT22;1427;48.510;9.060;2024-02-16T05:39:42;8.20;99.90
2839;DHT22;1427;48.510;9.060;2024-02-16T05:42:21;8.10;99.90
2839;DHT22;1427;48.510;9.060;2024-02-16T05:44:50;8.10;99.90
2839;DHT22;1427;48.510;9.060;2024-02-16T05:47:19;8.10;99.90
2839;DHT22;1427;48.510;9.060;2024-02-16T05:49:47;8.10;99.90
2839;DHT22;1427;48.510;9.060;2024-02-16T05:52:15;8.10;99.90
2839;DHT22;1427;48.510;9.060;2024-02-16T05:54:47;8.10;99.90
2839;DHT22;1427;48.510;9.060;2024-02-16T05:57:17;8.20;99.90
2839;DHT22;1427;48.510;9.060;2024-02-16T05:59:45;8.20;99.90
2839;DHT22;1427;48.510;9.060;2024-02-16T06:02:16;8.20;99.90
2839;DHT22;1427;48.510;9.060;2024-02-16T06:04:44;8.10;99.90
2839;DHT22;1427;48.510;9.060;2024-02-16T06:07:12;8.00;99.90
2839;DHT22;1427;48.510;9.060;2024-02-16T06:09:41;7.90;99.90
2839;DHT22;1427;48.510;9.060;2024-02-16T06:12:09;7.90;99.90
2839;DHT22;1427;48.510;9.060;2024-02-16T06:14:41;7.90;99.90
2839;DHT22;1427;48.510;9.060;2024-02-16T06:17:09;8.00;99.90
2839;DHT22;1427;48.510;9.060;2024-02-16T06:19:47;8.10;99.90
2839;DHT22;1427;48.510;9.060;2024-02-16T06:22:16;8.10;99.90
2839;DHT22;1427;48.510;9.060;2024-02-16T06:24:44;8.10;99.90
2839;DHT22;1427;48.510;9.060;2024-02-16T06:27:12;8.20;99.90
2839;DHT22;1427;48.510;9.060;2024-02-16T06:29:40;8.00;99.90
2839;DHT22;1427;48.510;9.060;2024-02-16T06:32:08;8.00;99.90
2839;DHT22;1427;48.510;9.060;2024-02-16T06:34:37;8.00;99.90
2839;DHT22;1427;48.510;9.060;2024-02-16T06:37:07;8.10;99.90
2839;DHT22;1427;48.510;9.060;2024-02-16T06:39:35;8.00;99.90
2839;DHT22;1427;48.510;9.060;2024-02-16T06:42:04;8.00;99.90
2839;DHT22;1427;48.510;9.060;2024-02-16T06:44:36;7.90;99.90
2839;DHT22;1427;48.510;9.060;2024-02-16T06:47:33;7.90;99.90
2839;DHT22;1427;48.510;9.060;2024-02-16T06:50:01;7.90;99.90
2839;DHT22;1427;48.510;9.060;2024-02-16T06:52:30;8.00;99.90
2839;DHT22;1427;48.510;9.060;2024-02-16T06:54:59;8.00;99.90
2839;DHT22;1427;48.510;9.060;2024-02-16T06:57:27;8.00;99.90
2839;DHT22;1427;48.510;9.060;2024-02-16T06:59:55;8.00;99.90
2839;DHT22;1427;48.510;9.060;2024-02-16T07:02:24;7.90;99.90
2839;DHT22;1427;48.510;9.060;2024-02-16T07:04:52;7.90;99.90
2839;DHT22;1427;48.510;9.060;2024-02-16T07:07:21;7.80;99.90
2839;DHT22;1427;48.510;9.060;2024-02-16T07:09:50;7.90;99.90
2839;DHT22;1427;48.510;9.060;2024-02-16T07:12:18;7.90;99.90
2839;DHT22;1427;48.510;9.060;2024-02-16T07:14:46;8.00;99.90
2839;DHT22;1427;48.510;9.060;2024-02-16T07:17:16;8.00;99.90
2839;DHT22;1427;48.510;9.060;2024-02-16T07:19:45;8.00;99.90
2839;DHT22;1427;48.510;9.060;2024-02-16T07:22:13;8.10;99.90
2839;DHT22;1427;48.510;9.060;2024-02-16T07:24:41;8.20;99.90
2839;DHT22;1427;48.510;9.060;2024-02-16T07:27:11;8.10;99.90
2839;DHT22;1427;48.510;9.060;2024-02-16T07:29:39;8.20;99.90
2839;DHT22;1427;48.510;9.060;2024-02-16T07:32:07;8.40;99.90
2839;DHT22;1427;48.510;9.060;2024-02-16T07:34:36;8.30;99.90
2839;DHT22;1427;48.510;9.060;2024-02-16T07:37:05;8.30;99.90
2839;DHT22;1427;48.510;9.060;2024-02-16T07:39:34;8.30;99.90
2839;DHT22;1427;48.510;9.060;2024-02-16T07:42:03;8.30;99.90
2839;DHT22;1427;48.510;9.060;2024-02-16T07:44:37;8.40;99.90
2839;DHT22;1427;48.510;9.060;2024-02-16T07:47:06;8.40;99.90
2839;DHT22;1427;48.510;9.060;2024-02-16T07:49:37;8.50;99.90
2839;DHT22;1427;48.510;9.060;2024-02-16T07:52:05;8.50;99.90
2839;DHT22;1427;48.510;9.060;2024-02-16T07:54:33;8.60;99.90
2839;DHT22;1427;48.510;9.060;2024-02-16T07:57:02;8.30;99.90
2839;DHT22;1427;48.510;9.060;2024-02-16T07:59:34;8.40;99.90
2839;DHT22;1427;48.510;9.060;2024-02-16T08:02:04;8.50;99.90
2839;DHT22;1427;48.510;9.060;2024-02-16T08:04:32;8.80;99.90
2839;DHT22;1427;48.510;9.060;2024-02-16T08:07:01;8.70;99.90
2839;DHT22;1427;48.510;9.060;2024-02-16T08:09:29;9.10;99.90
2839;DHT22;1427;48.510;9.060;2024-02-16T08:11:57;9.20;99.90
2839;DHT22;1427;48.510;9.060;2024-02-16T08:14:26;9.40;99.90
2839;DHT22;1427;48.510;9.060;2024-02-16T08:16:54;9.60;99.90
2839;DHT22;1427;48.510;9.060;2024-02-16T08:19:38;10.00;99.90
2839;DHT22;1427;48.510;9.060;2024-02-16T08:22:08;10.30;99.90
2839;DHT22;1427;48.510;9.060;2024-02-16T08:24:36;10.70;99.90
2839;DHT22;1427;48.510;9.060;2024-02-16T08:27:06;11.40;99.90
2839;DHT22;1427;48.510;9.060;2024-02-16T08:29:34;12.00;99.90
2839;DHT22;1427;48.510;9.060;2024-02-16T08:32:02;12.40;99.90
2839;DHT22;1427;48.510;9.060;2024-02-16T08:34:30;12.60;99.90
2839;DHT22;1427;48.510;9.060;2024-02-16T08:37:00;12.80;99.90
2839;DHT22;1427;48.510;9.060;2024-02-16T08:39:28;13.10;99.90
2839;DHT22;1427;48.510;9.060;2024-02-16T08:41:56;13.20;99.90
2839;DHT22;1427;48.510;9.060;2024-02-16T08:44:25;13.40;99.90
2839;DHT22;1427;48.510;9.060;2024-02-16T08:46:54;13.80;99.90
2839;DHT22;1427;48.510;9.060;2024-02-16T08:49:25;14.20;99.90
2839;DHT22;1427;48.510;9.060;2024-02-16T08:51:54;14.50;99.90
2839;DHT22;1427;48.510;9.060;2024-02-16T08:54:23;14.30;99.90
2839;DHT22;1427;48.510;9.060;2024-02-16T08:56:53;13.70;99.90
2839;DHT22;1427;48.510;9.060;2024-02-16T08:59:21;13.50;99.90
2839;DHT22;1427;48.510;9.060;2024-02-16T09:01:49;13.30;99.90
2839;DHT22;1427;48.510;9.060;2024-02-16T09:04:17;13.30;99.90
2839;DHT22;1427;48.510;9.060;2024-02-16T09:06:45;13.90;99.90
2839;DHT22;1427;48.510;9.060;2024-02-16T09:09:14;14.70;99.90
2839;DHT22;1427;48.510;9.060;2024-02-16T09:11:44;15.10;99.90
2839;DHT22;1427;48.510;9.060;2024-02-16T09:14:12;14.70;99.90
2839;DHT22;1427;48.510;9.060;2024-02-16T09:16:40;14.40;99.90
2839;DHT22;1427;48.510;9.060;2024-02-16T09:19:08;14.80;99.90
2839;DHT22;1427;48.510;9.060;2024-02-16T09:21:36;15.40;99.90
2839;DHT22;1427;48.510;9.060;2024-02-16T09:24:05;15.20;99.90
2839;DHT22;1427;48.510;9.060;2024-02-16T09:26:37;15.60;99.90
2839;DHT22;1427;48.510;9.060;2024-02-16T09:29:06;15.90;99.90
2839;DHT22;1427;48.510;9.060;2024-02-16T09:31:34;16.40;99.90
2839;DHT22;1427;48.510;9.060;2024-02-16T09:34:02;15.90;99.90
2839;DHT22;1427;48.510;9.060;2024-02-16T09:36:30;16.20;99.90
2839;DHT22;1427;48.510;9.060;2024-02-16T09:38:59;16.00;99.90
2839;DHT22;1427;48.510;9.060;2024-02-16T09:41:27;16.10;99.90
2839;DHT22;1427;48.510;9.060;2024-02-16T09:43:55;16.00;99.90
2839;DHT22;1427;48.510;9.060;2024-02-16T09:46:26;16.40;99.90
2839;DHT22;1427;48.510;9.060;2024-02-16T09:48:56;16.00;99.90
2839;DHT22;1427;48.510;9.060;2024-02-16T09:51:27;16.30;99.90
2839;DHT22;1427;48.510;9.060;2024-02-16T09:53:55;16.50;99.90
2839;DHT22;1427;48.510;9.060;2024-02-16T09:56:25;16.50;99.90
2839;DHT22;1427;48.510;9.060;2024-02-16T09:58:54;16.50;99.90
2839;DHT22;1427;48.510;9.060;2024-02-16T10:01:24;16.30;99.90
2839;DHT22;1427;48.510;9.060;2024-02-16T10:03:52;16.20;99.90
2839;DHT22;1427;48.510;9.060;2024-02-16T10:06:20;16.20;99.90
2839;DHT22;1427;48.510;9.060;2024-02-16T10:08:51;16.00;99.90
2839;DHT22;1427;48.510;9.060;2024-02-16T10:11:20;16.00;99.90
2839;DHT22;1427;48.510;9.060;2024-02-16T10:13:55;15.70;99.90
2839;DHT22;1427;48.510;9.060;2024-02-16T10:16:25;15.50;99.90
2839;DHT22;1427;48.510;9.060;2024-02-16T10:18:55;15.50;99.90
2839;DHT22;1427;48.510;9.060;2024-02-16T10:21:25;15.50;99.90
2839;DHT22;1427;48.510;9.060;2024-02-16T10:24:01;15.10;99.90
2839;DHT22;1427;48.510;9.060;2024-02-16T10:26:31;15.10;99.90
2839;DHT22;1427;48.510;9.060;2024-02-16T10:29:04;15.10;99.90
2839;DHT22;1427;48.510;9.060;2024-02-16T10:31:35;14.90;99.90
2839;DHT22;1427;48.510;9.060;2024-02-16T10:34:06;15.00;99.90
2839;DHT22;1427;48.510;9.060;2024-02-16T10:36:37;15.20;99.90
2839;DHT22;1427;48.510;9.060;2024-02-16T10:39:06;15.40;99.90
2839;DHT22;1427;48.510;9.060;2024-02-16T10:41:41;15.40;99.90
2839;DHT22;1427;48.510;9.060;2024-02-16T10:44:10;15.40;99.90
2839;DHT22;1427;48.510;9.060;2024-02-16T10:46:40;15.40;99.90
2839;DHT22;1427;48.510;9.060;2024-02-16T10:49:08;15.30;99.90
2839;DHT22;1427;48.510;9.060;2024-02-16T10:51:39;15.50;99.90
2839;DHT22;1427;48.510;9.060;2024-02-16T10:54:08;15.60;99.90
2839;DHT22;1427;48.510;9.060;2024-02-16T10:56:38;16.10;99.90
2839;DHT22;1427;48.510;9.060;2024-02-16T10:59:08;16.60;99.90
2839;DHT22;1427;48.510;9.060;2024-02-16T11:01:42;16.70;99.90
2839;DHT22;1427;48.510;9.060;2024-02-16T11:04:12;16.70;99.90
2839;DHT22;1427;48.510;9.060;2024-02-16T11:06:46;17.10;99.90
2839;DHT22;1427;48.510;9.060;2024-02-16T11:09:26;17.40;99.90
2839;DHT22;1427;48.510;9.060;2024-02-16T11:11:58;17.40;99.90
2839;DHT22;1427;48.510;9.060;2024-02-16T11:14:34;17.40;99.90
2839;DHT22;1427;48.510;9.060;2024-02-16T11:17:09;17.40;99.90
2839;DHT22;1427;48.510;9.060;2024-02-16T11:19:37;17.40;99.90
2839;DHT22;1427;48.510;9.060;2024-02-16T11:22:08;17.50;99.90
2839;DHT22;1427;48.510;9.060;2024-02-16T11:24:37;17.70;99.90
2839;DHT22;1427;48.510;9.060;2024-02-16T11:27:10;17.90;99.90
2839;DHT22;1427;48.510;9.060;2024-02-16T11:29:42;17.90;99.90
2839;DHT22;1427;48.510;9.060;2024-02-16T11:32:12;17.90;99.90
2839;DHT22;1427;48.510;9.060;2024-02-16T11:34:40;18.00;99.90
2839;DHT22;1427;48.510;9.060;2024-02-16T11:37:08;18.10;99.90
2839;DHT22;1427;48.510;9.060;2024-02-16T11:39:36;17.90;99.90
2839;DHT22;1427;48.510;9.060;2024-02-16T11:42:07;17.80;99.80
2839;DHT22;1427;48.510;9.060;2024-02-16T11:44:38;17.70;99.70
2839;DHT22;1427;48.510;9.060;2024-02-16T11:47:07;17.90;99.70
2839;DHT22;1427;48.510;9.060;2024-02-16T11:49:41;17.90;99.80
2839;DHT22;1427;48.510;9.060;2024-02-16T11:52:10;18.00;99.90
2839;DHT22;1427;48.510;9.060;2024-02-16T11:54:38;17.80;99.90
2839;DHT22;1427;48.510;9.060;2024-02-16T11:57:07;17.80;99.90
2839;DHT22;1427;48.510;9.060;2024-02-16T11:59:35;17.70;99.90
2839;DHT22;1427;48.510;9.060;2024-02-16T12:02:04;17.60;99.90
2839;DHT22;1427;48.510;9.060;2024-02-16T12:04:32;17.40;99.90
2839;DHT22;1427;48.510;9.060;2024-02-16T12:07:12;17.50;99.90
2839;DHT22;1427;48.510;9.060;2024-02-16T12:09:40;17.50;99.90
2839;DHT22;1427;48.510;9.060;2024-02-16T12:12:09;17.50;99.90
2839;DHT22;1427;48.510;9.060;2024-02-16T12:14:37;17.50;99.90
2839;DHT22;1427;48.510;9.060;2024-02-16T12:17:07;17.40;99.90
2839;DHT22;1427;48.510;9.060;2024-02-16T12:19:35;17.20;99.90
2839;DHT22;1427;48.510;9.060;2024-02-16T12:22:03;17.10;99.90
2839;DHT22;1427;48.510;9.060;2024-02-16T12:24:35;17.10;99.90
2839;DHT22;1427;48.510;9.060;2024-02-16T12:27:03;17.20;99.90
2839;DHT22;1427;48.510;9.060;2024-02-16T12:29:31;17.20;99.90
2839;DHT22;1427;48.510;9.060;2024-02-16T12:32:00;17.20;99.90
2839;DHT22;1427;48.510;9.060;2024-02-16T12:34:28;17.20;99.90
2839;DHT22;1427;48.510;9.060;2024-02-16T12:36:56;17.20;99.90
2839;DHT22;1427;48.510;9.060;2024-02-16T12:39:25;17.40;99.90
2839;DHT22;1427;48.510;9.060;2024-02-16T12:41:55;17.30;99.90
2839;DHT22;1427;48.510;9.060;2024-02-16T12:44:23;17.40;99.90
2839;DHT22;1427;48.510;9.060;2024-02-16T12:46:52;17.40;99.90
2839;DHT22;1427;48.510;9.060;2024-02-16T12:49:20;17.50;99.90
2839;DHT22;1427;48.510;9.060;2024-02-16T12:51:49;17.50;99.90
2839;DHT22;1427;48.510;9.060;2024-02-16T12:54:18;17.40;99.90
2839;DHT22;1427;48.510;9.060;2024-02-16T12:56:46;17.30;99.90
2839;DHT22;1427;48.510;9.060;2024-02-16T12:59:16;17.30;99.90
2839;DHT22;1427;48.510;9.060;2024-02-16T13:01:44;17.30;99.90
2839;DHT22;1427;48.510;9.060;2024-02-16T13:04:13;17.30;99.90
2839;DHT22;1427;48.510;9.060;2024-02-16T13:06:50;17.30;99.90
2839;DHT22;1427;48.510;9.060;2024-02-16T13:09:19;17.30;99.90
2839;DHT22;1427;48.510;9.060;2024-02-16T13:11:48;17.30;99.90
2839;DHT22;1427;48.510;9.060;2024-02-16T13:14:23;17.30;99.90
2839;DHT22;1427;48.510;9.060;2024-02-16T13:16:51;17.20;99.90
2839;DHT22;1427;48.510;9.060;2024-02-16T13:19:19;17.20;99.90
2839;DHT22;1427;48.510;9.060;2024-02-16T13:21:47;17.30;99.90
2839;DHT22;1427;48.510;9.060;2024-02-16T13:24:15;17.30;99.90
2839;DHT22;1427;48.510;9.060;2024-02-16T13:26:43;17.30;99.90
2839;DHT22;1427;48.510;9.060;2024-02-16T13:29:11;17.30;99.90
2839;DHT22;1427;48.510;9.060;2024-02-16T13:31:41;17.20;99.90
2839;DHT22;1427;48.510;9.060;2024-02-16T13:34:09;17.30;99.90
2839;DHT22;1427;48.510;9.060;2024-02-16T13:36:37;17.20;99.90
2839;DHT22;1427;48.510;9.060;2024-02-16T13:39:06;17.40;99.90
2839;DHT22;1427;48.510;9.060;2024-02-16T13:41:34;17.20;99.90
2839;DHT22;1427;48.510;9.060;2024-02-16T13:44:02;17.20;99.90
2839;DHT22;1427;48.510;9.060;2024-02-16T13:46:31;17.10;99.90
2839;DHT22;1427;48.510;9.060;2024-02-16T13:49:00;17.10;99.90
2839;DHT22;1427;48.510;9.060;2024-02-16T13:51:28;17.00;99.90
2839;DHT22;1427;48.510;9.060;2024-02-16T13:53:59;17.10;99.90
2839;DHT22;1427;48.510;9.060;2024-02-16T13:56:27;17.00;99.90
2839;DHT22;1427;48.510;9.060;2024-02-16T13:58:55;17.00;99.90
2839;DHT22;1427;48.510;9.060;2024-02-16T14:01:23;17.00;99.90
2839;DHT22;1427;48.510;9.060;2024-02-16T14:03:51;16.90;99.90
2839;DHT22;1427;48.510;9.060;2024-02-16T14:06:21;16.90;99.90
2839;DHT22;1427;48.510;9.060;2024-02-16T14:08:49;16.90;99.90
2839;DHT22;1427;48.510;9.060;2024-02-16T14:11:19;16.80;99.90
2839;DHT22;1427;48.510;9.060;2024-02-16T14:13:48;16.80;99.90
2839;DHT22;1427;48.510;9.060;2024-02-16T14:16:16;16.80;99.90
2839;DHT22;1427;48.510;9.060;2024-02-16T14:18:44;16.70;99.90
2839;DHT22;1427;48.510;9.060;2024-02-16T14:21:13;16.60;99.90
2839;DHT22;1427;48.510;9.060;2024-02-16T14:23:42;16.60;99.90
2839;DHT22;1427;48.510;9.060;2024-02-16T14:26:10;16.60;99.90
2839;DHT22;1427;48.510;9.060;2024-02-16T14:28:38;16.60;99.90
2839;DHT22;1427;48.510;9.060;2024-02-16T14:31:06;16.50;99.90
2839;DHT22;1427;48.510;9.060;2024-02-16T14:33:35;16.60;99.90
2839;DHT22;1427;48.510;9.060;2024-02-16T14:36:04;16.50;99.90
2839;DHT22;1427;48.510;9.060;2024-02-16T14:38:36;16.40;99.90
2839;DHT22;1427;48.510;9.060;2024-02-16T14:41:05;16.40;99.90
2839;DHT22;1427;48.510;9.060;2024-02-16T14:43:33;16.40;99.90
2839;DHT22;1427;48.510;9.060;2024-02-16T14:46:02;16.30;99.90
2839;DHT22;1427;48.510;9.060;2024-02-16T14:48:31;16.30;99.90
2839;DHT22;1427;48.510;9.060;2024-02-16T14:51:02;16.30;99.90
2839;DHT22;1427;48.510;9.060;2024-02-16T14:53:31;16.30;99.90
2839;DHT22;1427;48.510;9.060;2024-02-16T14:56:00;16.30;99.90
2839;DHT22;1427;48.510;9.060;2024-02-16T14:58:31;16.30;99.90
2839;DHT22;1427;48.510;9.060;2024-02-16T15:00:59;16.30;99.90
2839;DHT22;1427;48.510;9.060;2024-02-16T15:03:27;16.30;99.90
2839;DHT22;1427;48.510;9.060;2024-02-16T15:05:57;16.30;99.90
2839;DHT22;1427;48.510;9.060;2024-02-16T15:08:25;16.30;99.90
2839;DHT22;1427;48.510;9.060;2024-02-16T15:10:54;16.20;99.90
2839;DHT22;1427;48.510;9.060;2024-02-16T15:13:22;16.10;99.90
2839;DHT22;1427;48.510;9.060;2024-02-16T15:15:52;16.20;99.90
2839;DHT22;1427;48.510;9.060;2024-02-16T15:18:21;16.20;99.90
2839;DHT22;1427;48.510;9.060;2024-02-16T15:20:49;16.10;99.90
2839;DHT22;1427;48.510;9.060;2024-02-16T15:23:21;16.20;99.90
2839;DHT22;1427;48.510;9.060;2024-02-16T15:25:50;16.10;99.90
2839;DHT22;1427;48.510;9.060;2024-02-16T15:28:18;16.10;99.90
2839;DHT22;1427;48.510;9.060;2024-02-16T15:30:48;16.10;99.90
2839;DHT22;1427;48.510;9.060;2024-02-16T15:33:17;16.10;99.90
2839;DHT22;1427;48.510;9.060;2024-02-16T15:35:45;16.20;99.90
2839;DHT22;1427;48.510;9.060;2024-02-16T15:38:13;16.10;99.90
2839;DHT22;1427;48.510;9.060;2024-02-16T15:40:42;16.10;99.90
2839;DHT22;1427;48.510;9.060;2024-02-16T15:43:10;16.10;99.90
2839;DHT22;1427;48.510;9.060;2024-02-16T15:45:38;16.10;99.90
2839;DHT22;1427;48.510;9.060;2024-02-16T15:48:08;16.10;99.90
2839;DHT22;1427;48.510;9.060;2024-02-16T15:50:38;16.00;99.90
2839;DHT22;1427;48.510;9.060;2024-02-16T15:53:06;16.00;99.90
2839;DHT22;1427;48.510;9.060;2024-02-16T15:55:34;16.10;99.90
2839;DHT22;1427;48.510;9.060;2024-02-16T15:58:02;16.20;99.90
2839;DHT22;1427;48.510;9.060;2024-02-16T16:00:30;16.10;99.90
2839;DHT22;1427;48.510;9.060;2024-02-16T16:02:58;16.10;99.90
2839;DHT22;1427;48.510;9.060;2024-02-16T16:05:28;16.10;99.90
2839;DHT22;1427;48.510;9.060;2024-02-16T16:07:58;16.00;99.90
2839;DHT22;1427;48.510;9.060;2024-02-16T16:10:26;16.00;99.90
2839;DHT22;1427;48.510;9.060;2024-02-16T16:12:54;15.90;99.90
2839;DHT22;1427;48.510;9.060;2024-02-16T16:15:22;15.80;99.90
2839;DHT22;1427;48.510;9.060;2024-02-16T16:17:51;15.90;99.90
2839;DHT22;1427;48.510;9.060;2024-02-16T16:20:19;15.80;99.90
2839;DHT22;1427;48.510;9.060;2024-02-16T16:22:47;15.80;99.90